sensor_id;sensor_type;location;lat;lon;timestamp;pressure;altitude;pressure_sealevel;temperature;humidity
54924;BME280;40825;52.270;20.984;2022-11-02T00:01:18;100773.16;;;10.55;98.51
54924;BME280;40825;52.270;20.984;2022-11-02T00:03:43;100772.14;;;10.56;98.57
54924;BME280;40825;52.270;20.984;2022-11-02T00:06:09;100772.81;;;10.54;98.52
54924;BME280;40825;52.270;20.984;2022-11-02T00:08:35;100773.80;;;10.57;98.61
54924;BME280;40825;52.270;20.984;2022-11-02T00:11:01;100774.44;;;10.59;98.57
54924;BME280;40825;52.270;20.984;2022-11-02T00:13:26;100780.09;;;10.61;98.59
54924;BME280;40825;52.270;20.984;2022-11-02T00:15:53;100776.23;;;10.63;98.55
54924;BME280;40825;52.270;20.984;2022-11-02T00:18:19;100778.91;;;10.63;98.53
54924;BME280;40825;52.270;20.984;2022-11-02T00:20:45;100768.06;;;10.65;98.57
54924;BME280;40825;52.270;20.984;2022-11-02T00:23:11;100772.87;;;10.65;98.51
54924;BME280;40825;52.270;20.984;2022-11-02T00:25:47;100776.39;;;10.66;98.51
54924;BME280;40825;52.270;20.984;2022-11-02T00:28:15;100771.86;;;10.66;98.57
54924;BME280;40825;52.270;20.984;2022-11-02T00:30:42;100777.87;;;10.68;98.55
54924;BME280;40825;52.270;20.984;2022-11-02T00:33:09;100777.67;;;10.70;98.58
54924;BME280;40825;52.270;20.984;2022-11-02T00:35:35;100768.47;;;10.72;98.54
54924;BME280;40825;52.270;20.984;2022-11-02T00:38:01;100771.66;;;10.72;98.56
54924;BME280;40825;52.270;20.984;2022-11-02T00:40:27;100777.11;;;10.75;98.59
54924;BME280;40825;52.270;20.984;2022-11-02T00:42:53;100777.47;;;10.76;98.51
54924;BME280;40825;52.270;20.984;2022-11-02T00:45:19;100778.42;;;10.79;98.56
54924;BME280;40825;52.270;20.984;2022-11-02T00:47:48;100774.25;;;10.80;98.60
54924;BME280;40825;52.270;20.984;2022-11-02T00:50:15;100777.09;;;10.79;98.42
54924;BME280;40825;52.270;20.984;2022-11-02T00:52:41;100775.27;;;10.79;98.52
54924;BME280;40825;52.270;20.984;2022-11-02T00:55:08;100771.26;;;10.79;98.46
54924;BME280;40825;52.270;20.984;2022-11-02T00:57:38;100775.58;;;10.80;98.49
54924;BME280;40825;52.270;20.984;2022-11-02T01:00:06;100773.41;;;10.80;98.44
54924;BME280;40825;52.270;20.984;2022-11-02T01:02:34;100771.43;;;10.78;98.46
54924;BME280;40825;52.270;20.984;2022-11-02T01:05:01;100763.42;;;10.78;98.52
54924;BME280;40825;52.270;20.984;2022-11-02T01:07:27;100767.74;;;10.79;98.53
54924;BME280;40825;52.270;20.984;2022-11-02T01:09:53;100767.19;;;10.83;98.53
54924;BME280;40825;52.270;20.984;2022-11-02T01:12:19;100764.34;;;10.85;98.47
54924;BME280;40825;52.270;20.984;2022-11-02T01:14:47;100771.17;;;10.88;98.41
54924;BME280;40825;52.270;20.984;2022-11-02T01:17:14;100771.48;;;10.89;98.48
54924;BME280;40825;52.270;20.984;2022-11-02T01:19:40;100766.78;;;10.91;98.49
54924;BME280;40825;52.270;20.984;2022-11-02T01:22:06;100768.27;;;10.93;98.44
54924;BME280;40825;52.270;20.984;2022-11-02T01:24:32;100761.90;;;10.94;98.38
54924;BME280;40825;52.270;20.984;2022-11-02T01:26:58;100761.73;;;10.96;98.42
54924;BME280;40825;52.270;20.984;2022-11-02T01:29:25;100766.23;;;10.95;98.33
54924;BME280;40825;52.270;20.984;2022-11-02T01:31:51;100761.20;;;10.96;98.33
54924;BME280;40825;52.270;20.984;2022-11-02T01:34:19;100760.71;;;10.97;98.43
54924;BME280;40825;52.270;20.984;2022-11-02T01:36:46;100763.17;;;10.98;98.41
54924;BME280;40825;52.270;20.984;2022-11-02T01:39:13;100760.50;;;10.98;98.31
54924;BME280;40825;52.270;20.984;2022-11-02T01:41:40;100758.99;;;11.00;98.44
54924;BME280;40825;52.270;20.984;2022-11-02T01:44:33;100763.64;;;11.02;98.40
54924;BME280;40825;52.270;20.984;2022-11-02T01:47:06;100757.80;;;11.03;98.37
54924;BME280;40825;52.270;20.984;2022-11-02T01:49:35;100758.19;;;10.99;98.32
54924;BME280;40825;52.270;20.984;2022-11-02T01:52:08;100757.72;;;10.96;98.36
54924;BME280;40825;52.270;20.984;2022-11-02T01:54:50;100756.56;;;10.94;98.36
54924;BME280;40825;52.270;20.984;2022-11-02T01:57:19;100756.73;;;10.93;98.50
54924;BME280;40825;52.270;20.984;2022-11-02T02:00:05;100758.94;;;10.89;98.43
54924;BME280;40825;52.270;20.984;2022-11-02T02:02:39;100768.14;;;10.86;98.41
54924;BME280;40825;52.270;20.984;2022-11-02T02:05:14;100763.36;;;10.82;98.47
54924;BME280;40825;52.270;20.984;2022-11-02T02:07:43;100759.35;;;10.82;98.48
54924;BME280;40825;52.270;20.984;2022-11-02T02:10:10;100764.03;;;10.84;98.50
54924;BME280;40825;52.270;20.984;2022-11-02T02:12:38;100765.86;;;10.83;98.44
54924;BME280;40825;52.270;20.984;2022-11-02T02:15:06;100762.16;;;10.84;98.54
54924;BME280;40825;52.270;20.984;2022-11-02T02:18:00;100767.34;;;10.86;98.57
54924;BME280;40825;52.270;20.984;2022-11-02T02:26:54;100763.47;;;10.89;98.60
54924;BME280;40825;52.270;20.984;2022-11-02T02:29:33;100765.83;;;10.88;98.63
54924;BME280;40825;52.270;20.984;2022-11-02T02:34:54;100760.98;;;10.87;98.70
54924;BME280;40825;52.270;20.984;2022-11-02T02:37:34;100756.97;;;10.87;98.71
54924;BME280;40825;52.270;20.984;2022-11-02T02:40:12;100763.79;;;10.90;98.76
54924;BME280;40825;52.270;20.984;2022-11-02T02:42:46;100763.27;;;10.90;98.69
54924;BME280;40825;52.270;20.984;2022-11-02T02:48:02;100762.92;;;10.93;98.72
54924;BME280;40825;52.270;20.984;2022-11-02T02:50:33;100769.07;;;10.94;98.86
54924;BME280;40825;52.270;20.984;2022-11-02T02:53:00;100774.56;;;10.96;98.88
54924;BME280;40825;52.270;20.984;2022-11-02T02:55:30;100771.56;;;10.95;98.92
54924;BME280;40825;52.270;20.984;2022-11-02T02:57:59;100777.75;;;10.96;99.10
54924;BME280;40825;52.270;20.984;2022-11-02T03:00:27;100779.91;;;10.96;98.99
54924;BME280;40825;52.270;20.984;2022-11-02T03:02:55;100781.56;;;10.97;99.13
54924;BME280;40825;52.270;20.984;2022-11-02T03:05:32;100779.41;;;10.97;99.01
54924;BME280;40825;52.270;20.984;2022-11-02T03:07:59;100775.20;;;10.98;99.07
54924;BME280;40825;52.270;20.984;2022-11-02T03:10:30;100775.86;;;11.00;99.18
54924;BME280;40825;52.270;20.984;2022-11-02T03:16:02;100777.20;;;11.00;99.35
54924;BME280;40825;52.270;20.984;2022-11-02T03:18:48;100771.19;;;10.98;99.34
54924;BME280;40825;52.270;20.984;2022-11-02T03:21:30;100777.20;;;11.00;99.39
54924;BME280;40825;52.270;20.984;2022-11-02T03:23:59;100777.84;;;11.03;99.50
54924;BME280;40825;52.270;20.984;2022-11-02T03:26:32;100764.34;;;11.00;99.57
54924;BME280;40825;52.270;20.984;2022-11-02T03:29:17;100775.16;;;11.03;99.45
54924;BME280;40825;52.270;20.984;2022-11-02T03:31:59;100779.81;;;11.05;99.43
54924;BME280;40825;52.270;20.984;2022-11-02T03:37:19;100773.09;;;11.09;99.52
54924;BME280;40825;52.270;20.984;2022-11-02T03:42:38;100779.39;;;11.12;99.47
54924;BME280;40825;52.270;20.984;2022-11-02T03:45:09;100779.71;;;11.13;99.55
54924;BME280;40825;52.270;20.984;2022-11-02T03:47:38;100784.36;;;11.15;99.58
54924;BME280;40825;52.270;20.984;2022-11-02T03:50:06;100783.38;;;11.16;99.61
54924;BME280;40825;52.270;20.984;2022-11-02T03:52:35;100787.48;;;11.19;99.62
54924;BME280;40825;52.270;20.984;2022-11-02T03:55:09;100794.48;;;11.20;99.83
54924;BME280;40825;52.270;20.984;2022-11-02T03:57:48;100791.64;;;11.21;99.65
54924;BME280;40825;52.270;20.984;2022-11-02T04:00:18;100784.96;;;11.21;99.73
54924;BME280;40825;52.270;20.984;2022-11-02T04:02:48;100793.61;;;11.23;99.77
54924;BME280;40825;52.270;20.984;2022-11-02T04:05:32;100794.59;;;11.26;99.80
54924;BME280;40825;52.270;20.984;2022-11-02T04:07:57;100791.40;;;11.27;99.77
54924;BME280;40825;52.270;20.984;2022-11-02T04:10:42;100798.22;;;11.30;99.84
54924;BME280;40825;52.270;20.984;2022-11-02T04:13:28;100800.89;;;11.30;99.97
54924;BME280;40825;52.270;20.984;2022-11-02T04:16:13;100797.03;;;11.32;99.99
54924;BME280;40825;52.270;20.984;2022-11-02T04:18:41;100801.35;;;11.33;100.00
54924;BME280;40825;52.270;20.984;2022-11-02T04:21:26;100796.84;;;11.34;100.00
54924;BME280;40825;52.270;20.984;2022-11-02T04:23:53;100797.17;;;11.35;100.00
54924;BME280;40825;52.270;20.984;2022-11-02T04:26:38;100803.15;;;11.37;100.00
54924;BME280;40825;52.270;20.984;2022-11-02T04:29:04;100805.64;;;11.38;100.00
54924;BME280;40825;52.270;20.984;2022-11-02T04:31:30;100805.44;;;11.40;100.00
54924;BME280;40825;52.270;20.984;2022-11-02T04:33:56;100795.09;;;11.41;100.00
54924;BME280;40825;52.270;20.984;2022-11-02T04:36:28;100795.59;;;11.40;100.00
54924;BME280;40825;52.270;20.984;2022-11-02T04:38:54;100795.09;;;11.41;100.00
54924;BME280;40825;52.270;20.984;2022-11-02T04:41:21;100798.08;;;11.42;100.00
54924;BME280;40825;52.270;20.984;2022-11-02T04:44:06;100797.56;;;11.42;100.00
54924;BME280;40825;52.270;20.984;2022-11-02T04:46:37;100802.23;;;11.45;100.00
54924;BME280;40825;52.270;20.984;2022-11-02T04:49:04;100801.22;;;11.46;100.00
54924;BME280;40825;52.270;20.984;2022-11-02T04:51:31;100798.86;;;11.47;100.00
54924;BME280;40825;52.270;20.984;2022-11-02T04:53:57;100801.14;;;11.50;100.00
54924;BME280;40825;52.270;20.984;2022-11-02T04:56:25;100804.66;;;11.50;100.00
54924;BME280;40825;52.270;20.984;2022-11-02T04:58:55;100795.94;;;11.52;100.00
54924;BME280;40825;52.270;20.984;2022-11-02T05:01:23;100797.91;;;11.54;100.00
54924;BME280;40825;52.270;20.984;2022-11-02T05:03:52;100798.55;;;11.56;100.00
54924;BME280;40825;52.270;20.984;2022-11-02T05:06:21;100800.02;;;11.59;100.00
54924;BME280;40825;52.270;20.984;2022-11-02T05:08:48;100799.84;;;11.61;100.00
54924;BME280;40825;52.270;20.984;2022-11-02T05:11:14;100808.49;;;11.63;100.00
54924;BME280;40825;52.270;20.984;2022-11-02T05:13:40;100802.83;;;11.62;100.00
54924;BME280;40825;52.270;20.984;2022-11-02T05:16:10;100804.17;;;11.62;100.00
54924;BME280;40825;52.270;20.984;2022-11-02T05:18:37;100807.47;;;11.64;100.00
54924;BME280;40825;52.270;20.984;2022-11-02T05:21:03;100810.50;;;11.65;100.00
54924;BME280;40825;52.270;20.984;2022-11-02T05:23:30;100813.80;;;11.67;100.00
54924;BME280;40825;52.270;20.984;2022-11-02T05:25:58;100816.27;;;11.68;100.00
54924;BME280;40825;52.270;20.984;2022-11-02T05:28:27;100813.59;;;11.68;100.00
54924;BME280;40825;52.270;20.984;2022-11-02T05:30:54;100822.45;;;11.69;100.00
54924;BME280;40825;52.270;20.984;2022-11-02T05:33:27;100825.77;;;11.71;100.00
54924;BME280;40825;52.270;20.984;2022-11-02T05:35:55;100825.09;;;11.73;100.00
54924;BME280;40825;52.270;20.984;2022-11-02T05:38:23;100833.44;;;11.74;100.00
54924;BME280;40825;52.270;20.984;2022-11-02T05:40:55;100830.23;;;11.75;100.00
54924;BME280;40825;52.270;20.984;2022-11-02T05:43:22;100824.39;;;11.75;100.00
54924;BME280;40825;52.270;20.984;2022-11-02T05:45:58;100835.72;;;11.77;100.00
54924;BME280;40825;52.270;20.984;2022-11-02T05:48:26;100832.87;;;11.79;100.00
54924;BME280;40825;52.270;20.984;2022-11-02T05:50:56;100838.01;;;11.80;100.00
54924;BME280;40825;52.270;20.984;2022-11-02T05:53:24;100846.87;;;11.81;100.00
54924;BME280;40825;52.270;20.984;2022-11-02T05:55:52;100844.02;;;11.82;100.00
54924;BME280;40825;52.270;20.984;2022-11-02T05:58:20;100850.00;;;11.85;100.00
54924;BME280;40825;52.270;20.984;2022-11-02T06:00:47;100849.30;;;11.87;100.00
54924;BME280;40825;52.270;20.984;2022-11-02T06:03:13;100851.94;;;11.91;100.00
54924;BME280;40825;52.270;20.984;2022-11-02T06:05:41;100853.59;;;11.92;100.00
54924;BME280;40825;52.270;20.984;2022-11-02T06:08:08;100856.89;;;11.94;100.00
54924;BME280;40825;52.270;20.984;2022-11-02T06:10:34;100848.87;;;11.94;100.00
54924;BME280;40825;52.270;20.984;2022-11-02T06:13:03;100851.16;;;11.97;100.00
54924;BME280;40825;52.270;20.984;2022-11-02T06:15:31;100853.34;;;11.97;100.00
54924;BME280;40825;52.270;20.984;2022-11-02T06:17:57;100850.80;;;12.00;100.00
54924;BME280;40825;52.270;20.984;2022-11-02T06:20:23;100863.81;;;12.03;100.00
54924;BME280;40825;52.270;20.984;2022-11-02T06:22:49;100869.80;;;12.05;100.00
54924;BME280;40825;52.270;20.984;2022-11-02T06:25:15;100872.93;;;12.09;100.00
54924;BME280;40825;52.270;20.984;2022-11-02T06:27:53;100873.77;;;12.09;100.00
54924;BME280;40825;52.270;20.984;2022-11-02T06:30:23;100874.93;;;12.11;100.00
54924;BME280;40825;52.270;20.984;2022-11-02T06:32:51;100876.38;;;12.14;100.00
54924;BME280;40825;52.270;20.984;2022-11-02T06:35:19;100878.38;;;12.16;100.00
54924;BME280;40825;52.270;20.984;2022-11-02T06:37:46;100882.62;;;12.21;100.00
54924;BME280;40825;52.270;20.984;2022-11-02T06:40:13;100882.58;;;12.25;100.00
54924;BME280;40825;52.270;20.984;2022-11-02T06:42:40;100887.23;;;12.27;100.00
54924;BME280;40825;52.270;20.984;2022-11-02T06:45:07;100886.34;;;12.31;100.00
54924;BME280;40825;52.270;20.984;2022-11-02T06:47:35;100890.98;;;12.33;100.00
54924;BME280;40825;52.270;20.984;2022-11-02T06:50:03;100883.09;;;12.35;100.00
54924;BME280;40825;52.270;20.984;2022-11-02T06:52:31;100891.08;;;12.40;100.00
54924;BME280;40825;52.270;20.984;2022-11-02T06:54:57;100889.53;;;12.41;100.00
54924;BME280;40825;52.270;20.984;2022-11-02T06:57:23;100888.32;;;12.44;100.00
54924;BME280;40825;52.270;20.984;2022-11-02T06:59:49;100886.94;;;12.48;100.00
54924;BME280;40825;52.270;20.984;2022-11-02T07:02:15;100885.52;;;12.52;100.00
54924;BME280;40825;52.270;20.984;2022-11-02T07:04:41;100882.07;;;12.58;100.00
54924;BME280;40825;52.270;20.984;2022-11-02T07:07:07;100895.73;;;12.63;100.00
54924;BME280;40825;52.270;20.984;2022-11-02T07:09:33;100893.91;;;12.71;100.00
54924;BME280;40825;52.270;20.984;2022-11-02T07:11:59;100889.97;;;12.77;100.00
54924;BME280;40825;52.270;20.984;2022-11-02T07:14:25;100895.38;;;12.84;100.00
54924;BME280;40825;52.270;20.984;2022-11-02T07:16:51;100893.00;;;12.85;100.00
54924;BME280;40825;52.270;20.984;2022-11-02T07:19:17;100899.65;;;12.89;100.00
54924;BME280;40825;52.270;20.984;2022-11-02T07:21:43;100893.17;;;12.95;100.00
54924;BME280;40825;52.270;20.984;2022-11-02T07:24:09;100894.45;;;12.99;99.67
54924;BME280;40825;52.270;20.984;2022-11-02T07:26:35;100899.50;;;12.98;99.57
54924;BME280;40825;52.270;20.984;2022-11-02T07:29:03;100899.95;;;13.01;99.92
54924;BME280;40825;52.270;20.984;2022-11-02T07:31:29;100899.67;;;13.07;99.96
54924;BME280;40825;52.270;20.984;2022-11-02T07:33:56;100896.44;;;13.18;99.96
54924;BME280;40825;52.270;20.984;2022-11-02T07:36:22;100898.81;;;13.35;99.76
54924;BME280;40825;52.270;20.984;2022-11-02T07:38:49;100898.50;;;13.45;99.50
54924;BME280;40825;52.270;20.984;2022-11-02T07:41:15;100899.27;;;13.56;99.74
54924;BME280;40825;52.270;20.984;2022-11-02T07:43:41;100898.91;;;13.66;98.14
54924;BME280;40825;52.270;20.984;2022-11-02T07:46:07;100895.45;;;13.79;98.96
54924;BME280;40825;52.270;20.984;2022-11-02T07:48:33;100899.42;;;13.90;98.84
54924;BME280;40825;52.270;20.984;2022-11-02T07:51:00;100897.59;;;13.97;98.80
54924;BME280;40825;52.270;20.984;2022-11-02T07:53:26;100891.43;;;14.03;98.50
54924;BME280;40825;52.270;20.984;2022-11-02T07:55:52;100896.00;;;14.16;98.45
54924;BME280;40825;52.270;20.984;2022-11-02T07:58:18;100897.27;;;14.27;97.56
54924;BME280;40825;52.270;20.984;2022-11-02T08:00:44;100895.32;;;14.39;98.15
54924;BME280;40825;52.270;20.984;2022-11-02T08:03:10;100896.47;;;14.54;98.14
54924;BME280;40825;52.270;20.984;2022-11-02T08:05:39;100899.59;;;14.71;95.12
54924;BME280;40825;52.270;20.984;2022-11-02T08:08:17;100892.17;;;14.73;96.62
54924;BME280;40825;52.270;20.984;2022-11-02T08:10:45;100898.57;;;14.99;96.88
54924;BME280;40825;52.270;20.984;2022-11-02T08:13:14;100904.05;;;15.15;96.39
54924;BME280;40825;52.270;20.984;2022-11-02T08:15:42;100899.98;;;15.35;94.95
54924;BME280;40825;52.270;20.984;2022-11-02T08:18:18;100902.38;;;15.64;95.96
54924;BME280;40825;52.270;20.984;2022-11-02T08:20:42;100901.11;;;15.73;95.60
54924;BME280;40825;52.270;20.984;2022-11-02T08:23:11;100904.30;;;15.73;95.61
54924;BME280;40825;52.270;20.984;2022-11-02T08:25:38;100906.52;;;15.60;94.62
54924;BME280;40825;52.270;20.984;2022-11-02T08:28:06;100911.30;;;15.58;95.18
54924;BME280;40825;52.270;20.984;2022-11-02T08:30:33;100904.64;;;15.67;93.56
54924;BME280;40825;52.270;20.984;2022-11-02T08:33:07;100895.48;;;15.81;93.73
54924;BME280;40825;52.270;20.984;2022-11-02T08:35:38;100898.55;;;15.99;94.00
54924;BME280;40825;52.270;20.984;2022-11-02T08:38:05;100903.50;;;16.02;93.52
54924;BME280;40825;52.270;20.984;2022-11-02T08:40:33;100892.42;;;16.01;92.46
54924;BME280;40825;52.270;20.984;2022-11-02T08:43:02;100894.18;;;15.98;90.90
54924;BME280;40825;52.270;20.984;2022-11-02T08:45:30;100899.08;;;15.85;90.56
54924;BME280;40825;52.270;20.984;2022-11-02T08:47:57;100898.44;;;15.89;91.44
54924;BME280;40825;52.270;20.984;2022-11-02T08:50:24;100898.41;;;16.03;90.70
54924;BME280;40825;52.270;20.984;2022-11-02T08:52:51;100893.31;;;16.27;90.92
54924;BME280;40825;52.270;20.984;2022-11-02T08:55:17;100901.78;;;16.30;90.62
54924;BME280;40825;52.270;20.984;2022-11-02T09:00:18;100901.39;;;16.27;89.06
54924;BME280;40825;52.270;20.984;2022-11-02T09:03:06;100902.29;;;16.30;89.48
54924;BME280;40825;52.270;20.984;2022-11-02T09:05:36;100903.99;;;16.24;89.07
54924;BME280;40825;52.270;20.984;2022-11-02T09:08:06;100905.24;;;16.05;88.43
54924;BME280;40825;52.270;20.984;2022-11-02T09:10:35;100906.38;;;16.07;88.46
54924;BME280;40825;52.270;20.984;2022-11-02T09:13:03;100904.25;;;16.16;88.31
54924;BME280;40825;52.270;20.984;2022-11-02T09:15:33;100908.17;;;16.20;88.06
54924;BME280;40825;52.270;20.984;2022-11-02T09:18:01;100900.90;;;16.20;87.90
54924;BME280;40825;52.270;20.984;2022-11-02T09:20:27;100899.11;;;16.07;87.37
54924;BME280;40825;52.270;20.984;2022-11-02T09:22:53;100894.91;;;16.02;87.51
54924;BME280;40825;52.270;20.984;2022-11-02T09:25:19;100894.92;;;15.95;86.98
54924;BME280;40825;52.270;20.984;2022-11-02T09:27:45;100894.73;;;15.90;87.19
54924;BME280;40825;52.270;20.984;2022-11-02T09:30:12;100892.65;;;15.86;86.35
54924;BME280;40825;52.270;20.984;2022-11-02T09:32:38;100892.65;;;15.86;86.04
54924;BME280;40825;52.270;20.984;2022-11-02T09:35:09;100895.69;;;15.80;86.46
54924;BME280;40825;52.270;20.984;2022-11-02T09:37:36;100897.81;;;15.71;86.00
54924;BME280;40825;52.270;20.984;2022-11-02T09:40:04;100903.86;;;15.53;84.72
54924;BME280;40825;52.270;20.984;2022-11-02T09:46:11;100900.90;;;15.45;85.26
54924;BME280;40825;52.270;20.984;2022-11-02T09:48:43;100904.22;;;15.34;85.28
54924;BME280;40825;52.270;20.984;2022-11-02T09:51:17;100904.75;;;15.26;85.06
54924;BME280;40825;52.270;20.984;2022-11-02T09:56:35;100905.70;;;15.16;84.64
54924;BME280;40825;52.270;20.984;2022-11-02T09:59:15;100904.38;;;15.09;84.74
54924;BME280;40825;52.270;20.984;2022-11-02T10:13:57;100910.59;;;14.96;84.17
54924;BME280;40825;52.270;20.984;2022-11-02T10:16:34;100909.96;;;14.88;84.32
54924;BME280;40825;52.270;20.984;2022-11-02T10:19:04;100909.44;;;14.81;83.99
54924;BME280;40825;52.270;20.984;2022-11-02T10:21:34;100909.55;;;14.77;83.87
54924;BME280;40825;52.270;20.984;2022-11-02T10:26:53;100915.10;;;14.69;84.00
54924;BME280;40825;52.270;20.984;2022-11-02T10:29:42;100910.23;;;14.68;84.06
54924;BME280;40825;52.270;20.984;2022-11-02T10:32:13;100908.89;;;14.68;84.21
54924;BME280;40825;52.270;20.984;2022-11-02T10:34:41;100908.58;;;14.67;84.07
54924;BME280;40825;52.270;20.984;2022-11-02T10:51:32;100907.38;;;14.97;84.02
54924;BME280;40825;52.270;20.984;2022-11-02T10:53:58;100909.66;;;15.00;84.03
54924;BME280;40825;52.270;20.984;2022-11-02T10:56:31;100911.92;;;15.03;84.11
54924;BME280;40825;52.270;20.984;2022-11-02T11:02:09;100912.84;;;15.06;83.87
54924;BME280;40825;52.270;20.984;2022-11-02T11:04:26;100911.19;;;15.05;83.97
54924;BME280;40825;52.270;20.984;2022-11-02T11:06:55;100912.64;;;15.08;84.00
54924;BME280;40825;52.270;20.984;2022-11-02T11:10:24;100914.70;;;15.12;83.89
54924;BME280;40825;52.270;20.984;2022-11-02T11:12:16;100915.31;;;15.15;83.12
54924;BME280;40825;52.270;20.984;2022-11-02T11:14:48;100912.21;;;15.11;83.37
54924;BME280;40825;52.270;20.984;2022-11-02T11:17:17;100915.55;;;15.13;83.17
54924;BME280;40825;52.270;20.984;2022-11-02T11:19:48;100914.20;;;15.13;83.23
54924;BME280;40825;52.270;20.984;2022-11-02T11:22:38;100906.84;;;15.18;83.30
54924;BME280;40825;52.270;20.984;2022-11-02T11:25:23;100913.02;;;15.32;83.14
54924;BME280;40825;52.270;20.984;2022-11-02T11:27:57;100904.13;;;15.38;83.29
54924;BME280;40825;52.270;20.984;2022-11-02T11:30:32;100909.80;;;15.39;83.07
54924;BME280;40825;52.270;20.984;2022-11-02T11:33:01;100906.80;;;15.31;82.81
54924;BME280;40825;52.270;20.984;2022-11-02T11:35:34;100904.04;;;15.29;82.66
54924;BME280;40825;52.270;20.984;2022-11-02T11:38:07;100897.49;;;15.34;82.71
54924;BME280;40825;52.270;20.984;2022-11-02T11:40:38;100897.57;;;15.43;81.91
54924;BME280;40825;52.270;20.984;2022-11-02T11:43:13;100898.13;;;15.29;81.61
54924;BME280;40825;52.270;20.984;2022-11-02T11:46:01;100892.97;;;15.21;82.12
54924;BME280;40825;52.270;20.984;2022-11-02T11:56:56;100892.77;;;15.22;81.16
54924;BME280;40825;52.270;20.984;2022-11-02T11:59:46;100890.70;;;15.11;80.27
54924;BME280;40825;52.270;20.984;2022-11-02T12:02:22;100890.93;;;15.09;79.23
54924;BME280;40825;52.270;20.984;2022-11-02T12:05:03;100896.83;;;15.02;79.70
54924;BME280;40825;52.270;20.984;2022-11-02T12:08:18;100894.66;;;14.95;79.77
54924;BME280;40825;52.270;20.984;2022-11-02T12:11:11;100895.79;;;14.90;79.90
54924;BME280;40825;52.270;20.984;2022-11-02T12:13:45;100890.63;;;14.95;79.84
54924;BME280;40825;52.270;20.984;2022-11-02T12:16:57;100883.69;;;15.03;79.92
54924;BME280;40825;52.270;20.984;2022-11-02T12:20:01;100887.30;;;15.06;80.23
54924;BME280;40825;52.270;20.984;2022-11-02T12:34:06;100875.13;;;14.90;79.70
54924;BME280;40825;52.270;20.984;2022-11-02T12:39:24;100870.25;;;15.03;79.85
54924;BME280;40825;52.270;20.984;2022-11-02T12:42:27;100861.45;;;15.05;79.74
54924;BME280;40825;52.270;20.984;2022-11-02T12:56:10;100862.26;;;15.49;79.58
54924;BME280;40825;52.270;20.984;2022-11-02T12:58:40;100858.48;;;15.63;79.46
54924;BME280;40825;52.270;20.984;2022-11-02T13:04:19;100854.84;;;15.74;79.09
54924;BME280;40825;52.270;20.984;2022-11-02T13:06:54;100857.03;;;15.67;79.10
54924;BME280;40825;52.270;20.984;2022-11-02T13:09:35;100852.89;;;15.65;79.08
54924;BME280;40825;52.270;20.984;2022-11-02T13:12:05;100851.11;;;15.68;78.91
54924;BME280;40825;52.270;20.984;2022-11-02T13:14:41;100847.01;;;15.65;78.66
54924;BME280;40825;52.270;20.984;2022-11-02T13:22:55;100855.56;;;15.42;78.66
54924;BME280;40825;52.270;20.984;2022-11-02T13:25:33;100859.42;;;15.30;78.35
54924;BME280;40825;52.270;20.984;2022-11-02T13:28:08;100854.70;;;15.19;78.63
54924;BME280;40825;52.270;20.984;2022-11-02T13:30:39;100854.33;;;15.08;78.31
54924;BME280;40825;52.270;20.984;2022-11-02T13:33:15;100852.56;;;14.98;78.45
54924;BME280;40825;52.270;20.984;2022-11-02T13:35:45;100859.09;;;14.86;78.40
54924;BME280;40825;52.270;20.984;2022-11-02T13:38:29;100858.58;;;14.73;78.14
54924;BME280;40825;52.270;20.984;2022-11-02T13:41:16;100861.03;;;14.61;78.20
54924;BME280;40825;52.270;20.984;2022-11-02T13:46:57;100873.22;;;14.37;77.99
54924;BME280;40825;52.270;20.984;2022-11-02T13:49:39;100874.34;;;14.25;78.18
54924;BME280;40825;52.270;20.984;2022-11-02T13:52:13;100874.10;;;14.13;78.12
54924;BME280;40825;52.270;20.984;2022-11-02T13:54:50;100875.22;;;14.08;78.37
54924;BME280;40825;52.270;20.984;2022-11-02T13:57:38;100882.42;;;14.00;78.42
54924;BME280;40825;52.270;20.984;2022-11-02T14:03:04;100889.05;;;13.80;78.62
54924;BME280;40825;52.270;20.984;2022-11-02T14:05:33;100896.76;;;13.66;78.73
54924;BME280;40825;52.270;20.984;2022-11-02T14:08:06;100899.27;;;13.56;78.89
54924;BME280;40825;52.270;20.984;2022-11-02T14:10:39;100898.30;;;13.46;78.95
54924;BME280;40825;52.270;20.984;2022-11-02T14:13:13;100889.55;;;13.38;79.15
54924;BME280;40825;52.270;20.984;2022-11-02T14:15:42;100892.20;;;13.31;79.23
54924;BME280;40825;52.270;20.984;2022-11-02T14:18:14;100890.80;;;13.24;79.31
54924;BME280;40825;52.270;20.984;2022-11-02T14:20:41;100903.98;;;13.19;79.42
54924;BME280;40825;52.270;20.984;2022-11-02T14:25:51;100896.81;;;13.09;79.65
54924;BME280;40825;52.270;20.984;2022-11-02T14:33:51;100893.58;;;12.91;79.96
54924;BME280;40825;52.270;20.984;2022-11-02T14:39:16;100893.59;;;12.81;80.15
54924;BME280;40825;52.270;20.984;2022-11-02T14:42:03;100886.31;;;12.74;80.23
54924;BME280;40825;52.270;20.984;2022-11-02T14:47:41;100885.56;;;12.59;80.43
54924;BME280;40825;52.270;20.984;2022-11-02T14:50:16;100887.95;;;12.47;80.55
54924;BME280;40825;52.270;20.984;2022-11-02T14:52:59;100886.03;;;12.41;80.62
54924;BME280;40825;52.270;20.984;2022-11-02T14:55:37;100883.48;;;12.32;80.77
54924;BME280;40825;52.270;20.984;2022-11-02T14:58:15;100886.07;;;12.26;80.90
54924;BME280;40825;52.270;20.984;2022-11-02T15:06:11;100892.23;;;12.04;81.20
54924;BME280;40825;52.270;20.984;2022-11-02T15:19:47;100881.75;;;11.73;81.91